Time,TemperatureF,DewpointF,PressureIn,WindDirection,WindDirectionDegrees,WindSpeedMPH,WindSpeedGustMPH,Humidity,HourlyPrecipIn,Conditions,Clouds,dailyrainin,SoftwareType,DateUTC
2013-09-20 00:14:00,55.0,53.0,30.03,WNW,291,4.0,-999.0,93,-99.99,,,-99.99,,2013-09-20 04:14:00,
2013-09-20 00:24:00,55.0,53.0,30.03,WNW,292,4.0,-999.0,93,-99.99,,,-99.99,,2013-09-20 04:24:00,
2013-09-20 00:34:00,55.0,53.0,30.03,WNW,292,4.0,-999.0,93,-99.99,,,-99.99,,2013-09-20 04:34:00,
2013-09-20 00:44:00,55.0,53.0,30.03,WNW,292,4.0,-999.0,93,-99.99,,,-99.99,,2013-09-20 04:44:00,
2013-09-20 00:53:00,54.0,52.0,30.03,WNW,295,4.0,-999.0,93,-99.99,,,-99.99,,2013-09-20 04:53:00,
2013-09-20 01:13:00,53.0,51.0,30.03,WNW,290,4.0,-999.0,94,-99.99,,,-99.99,,2013-09-20 05:13:00,
2013-09-20 01:23:00,54.0,53.0,30.03,WNW,283,4.0,-999.0,95,-99.99,,,-99.99,,2013-09-20 05:23:00,
2013-09-20 01:53:00,54.0,53.0,30.03,WNW,298,4.0,-999.0,95,-99.99,,,-99.99,,2013-09-20 05:53:00,
2013-09-20 02:12:00,54.0,53.0,30.02,WNW,297,4.0,-999.0,95,-99.99,,,-99.99,,2013-09-20 06:12:00,
2013-09-20 02:22:00,54.0,53.0,30.02,WNW,297,4.0,-999.0,95,-99.99,,,-99.99,,2013-09-20 06:22:00,
2013-09-20 02:52:00,53.0,52.0,30.02,WNW,297,4.0,-999.0,96,-99.99,,,-99.99,,2013-09-20 06:52:00,
2013-09-20 03:12:00,53.0,52.0,30.02,WNW,297,4.0,-999.0,96,-99.99,,,-99.99,,2013-09-20 07:12:00,
2013-09-20 03:23:00,53.0,52.0,30.02,WNW,297,4.0,-999.0,96,-99.99,,,-99.99,,2013-09-20 07:23:00,
2013-09-20 03:42:00,53.0,52.0,30.02,WNW,285,4.0,-999.0,96,-99.99,,,-99.99,,2013-09-20 07:42:00,
2013-09-20 03:53:00,53.0,52.0,30.02,WNW,285,4.0,-999.0,96,-99.99,,,-99.99,,2013-09-20 07:53:00,
2013-09-20 04:11:00,54.0,53.0,30.02,WNW,285,4.0,-999.0,96,-99.99,,,-99.99,,2013-09-20 08:11:00,
2013-09-20 04:22:00,54.0,53.0,30.03,WNW,287,4.0,-999.0,96,-99.99,,,-99.99,,2013-09-20 08:22:00,
2013-09-20 04:52:00,54.0,53.0,30.03,WNW,295,4.0,-999.0,97,-99.99,,,-99.99,,2013-09-20 08:52:00,
2013-09-20 05:22:00,53.0,52.0,30.02,WNW,293,2.0,-999.0,97,-99.99,,,-99.99,,2013-09-20 09:22:00,
2013-09-20 05:43:00,53.0,52.0,30.02,WNW,293,0.0,-999.0,97,-99.99,,,-99.99,,2013-09-20 09:43:00,
2013-09-20 05:53:00,52.0,51.0,30.02,WNW,293,0.0,-999.0,97,-99.99,,,-99.99,,2013-09-20 09:53:00,
2013-09-20 06:13:00,52.0,51.0,30.02,WNW,293,2.0,-999.0,97,-99.99,,,-99.99,,2013-09-20 10:13:00,
2013-09-20 06:23:00,51.0,50.0,30.02,WNW,293,2.0,-999.0,97,-99.99,,,-99.99,,2013-09-20 10:23:00,
2013-09-20 06:42:00,51.0,50.0,30.02,WNW,293,1.0,-999.0,97,-99.99,,,-99.99,,2013-09-20 10:42:00,
2013-09-20 06:53:00,51.0,50.0,30.03,WNW,293,1.0,-999.0,98,-99.99,,,-99.99,,2013-09-20 10:53:00,
2013-09-20 07:12:00,50.0,49.0,30.03,WNW,293,2.0,-999.0,98,-99.99,,,-99.99,,2013-09-20 11:12:00,
2013-09-20 07:23:00,51.0,50.0,30.03,WNW,293,2.0,-999.0,98,-99.99,,,-99.99,,2013-09-20 11:23:00,
2013-09-20 07:42:00,56.0,55.0,30.03,WNW,290,3.0,-999.0,98,-99.99,,,-99.99,,2013-09-20 11:42:00,
2013-09-20 07:52:00,62.0,60.0,30.03,WNW,290,3.0,-999.0,94,-99.99,,,-99.99,,2013-09-20 11:52:00,
2013-09-20 12:13:00,75.0,61.0,30.03,SSW,203,7.0,-999.0,62,-99.99,,,-99.99,,2013-09-20 16:13:00,
2013-09-20 12:23:00,75.0,61.0,30.04,SW,227,8.0,-999.0,61,-99.99,,,-99.99,,2013-09-20 16:23:00,
2013-09-20 12:42:00,74.0,61.0,30.03,SW,235,7.0,-999.0,63,-99.99,,,-99.99,,2013-09-20 16:42:00,
2013-09-20 12:53:00,74.0,61.0,30.04,SW,226,10.0,-999.0,65,-99.99,,,-99.99,,2013-09-20 16:53:00,
2013-09-20 13:13:00,74.0,63.0,30.04,SSW,195,8.0,-999.0,68,-99.99,,,-99.99,,2013-09-20 17:13:00,
2013-09-20 13:24:00,74.0,62.0,30.03,South,182,8.0,-999.0,66,-99.99,,,-99.99,,2013-09-20 17:24:00,
2013-09-20 13:42:00,74.0,62.0,30.03,SW,228,7.0,-999.0,67,-99.99,,,-99.99,,2013-09-20 17:42:00,
2013-09-20 13:53:00,73.0,62.0,30.02,SW,222,7.0,-999.0,68,-99.99,,,-99.99,,2013-09-20 17:53:00,
2013-09-20 14:12:00,73.0,62.0,30.01,SW,224,9.0,-999.0,68,-99.99,,,-99.99,,2013-09-20 18:12:00,
2013-09-20 14:22:00,73.0,63.0,30.01,SW,225,9.0,-999.0,71,-99.99,,,-99.99,,2013-09-20 18:22:00,
2013-09-20 14:42:00,72.0,62.0,30.01,SW,214,10.0,-999.0,71,-99.99,,,-99.99,,2013-09-20 18:42:00,
2013-09-20 14:52:00,72.0,62.0,30.01,South,191,10.0,-999.0,72,-99.99,,,-99.99,,2013-09-20 18:52:00,
2013-09-20 15:12:00,73.0,63.0,30.00,SW,232,9.0,-999.0,72,-99.99,,,-99.99,,2013-09-20 19:12:00,
2013-09-20 15:22:00,73.0,63.0,30.00,South,171,9.0,-999.0,72,-99.99,,,-99.99,,2013-09-20 19:22:00,
2013-09-20 15:42:00,73.0,63.0,29.99,SSW,200,9.0,-999.0,72,-99.99,,,-99.99,,2013-09-20 19:42:00,
2013-09-20 15:52:00,73.0,63.0,30.00,SW,220,8.0,-999.0,70,-99.99,,,-99.99,,2013-09-20 19:52:00,
2013-09-20 16:12:00,72.0,62.0,30.00,WSW,238,9.0,-999.0,72,-99.99,,,-99.99,,2013-09-20 20:12:00,
2013-09-20 16:22:00,72.0,62.0,29.99,SW,216,9.0,-999.0,71,-99.99,,,-99.99,,2013-09-20 20:22:00,
2013-09-20 16:42:00,72.0,62.0,29.99,SW,222,8.0,-999.0,71,-99.99,,,-99.99,,2013-09-20 20:42:00,
2013-09-20 16:52:00,73.0,63.0,29.99,SSW,201,8.0,-999.0,72,-99.99,,,-99.99,,2013-09-20 20:52:00,
2013-09-20 17:12:00,72.0,62.0,29.99,SW,221,9.0,-999.0,72,-99.99,,,-99.99,,2013-09-20 21:12:00,
2013-09-20 17:22:00,72.0,62.0,29.99,SW,224,8.0,-999.0,72,-99.99,,,-99.99,,2013-09-20 21:22:00,
2013-09-20 17:54:00,70.0,61.0,29.99,SW,215,9.0,-999.0,74,-99.99,,,-99.99,,2013-09-20 21:54:00,
2013-09-20 18:14:00,70.0,61.0,29.99,WSW,246,7.0,-999.0,74,-99.99,,,-99.99,,2013-09-20 22:14:00,
2013-09-20 18:24:00,69.0,61.0,30.00,SW,227,8.0,-999.0,75,-99.99,,,-99.99,,2013-09-20 22:24:00,
2013-09-20 18:44:00,68.0,61.0,29.99,SW,231,7.0,-999.0,78,-99.99,,,-99.99,,2013-09-20 22:44:00,
2013-09-20 18:53:00,66.0,60.0,29.99,WSW,240,7.0,-999.0,82,-99.99,,,-99.99,,2013-09-20 22:53:00,
2013-09-20 19:13:00,65.0,61.0,29.99,SW,227,5.0,-999.0,86,-99.99,,,-99.99,,2013-09-20 23:13:00,
2013-09-20 19:22:00,64.0,60.0,29.99,West,265,4.0,-999.0,88,-99.99,,,-99.99,,2013-09-20 23:22:00,
2013-09-20 19:53:00,63.0,60.0,29.99,WSW,245,4.0,-999.0,90,-99.99,,,-99.99,,2013-09-20 23:53:00,
2013-09-20 20:11:00,62.0,59.0,30.00,WSW,245,2.0,-999.0,91,-99.99,,,-99.99,,2013-09-21 00:11:00,
2013-09-20 20:22:00,62.0,60.0,30.00,WSW,245,3.0,-999.0,92,-99.99,,,-99.99,,2013-09-21 00:22:00,
2013-09-20 20:42:00,60.0,58.0,30.00,WSW,245,0.0,-999.0,92,-99.99,,,-99.99,,2013-09-21 00:42:00,
2013-09-20 20:52:00,59.0,57.0,29.99,WSW,245,1.0,-999.0,93,-99.99,,,-99.99,,2013-09-21 00:52:00,
2013-09-20 21:12:00,58.0,56.0,30.00,WSW,245,0.0,-999.0,93,-99.99,,,-99.99,,2013-09-21 01:12:00,
2013-09-20 21:22:00,57.0,55.0,30.00,WSW,245,0.0,-999.0,93,-99.99,,,-99.99,,2013-09-21 01:22:00,
2013-09-20 21:42:00,57.0,55.0,30.00,WSW,245,0.0,-999.0,93,-99.99,,,-99.99,,2013-09-21 01:42:00,
2013-09-20 21:52:00,57.0,56.0,30.00,WSW,239,2.0,-999.0,95,-99.99,,,-99.99,,2013-09-21 01:52:00,
2013-09-20 22:12:00,59.0,58.0,29.99,SSW,203,4.0,-999.0,96,-99.99,,,-99.99,,2013-09-21 02:12:00,
2013-09-20 22:22:00,60.0,59.0,29.99,SSW,212,4.0,-999.0,95,-99.99,,,-99.99,,2013-09-21 02:22:00,
2013-09-20 22:42:00,61.0,59.0,29.99,SSW,193,4.0,-999.0,94,-99.99,,,-99.99,,2013-09-21 02:42:00,
2013-09-20 22:52:00,61.0,59.0,29.98,South,191,4.0,-999.0,93,-99.99,,,-99.99,,2013-09-21 02:52:00,
2013-09-20 23:12:00,61.0,58.0,29.98,South,191,5.0,-999.0,91,-99.99,,,-99.99,,2013-09-21 03:12:00,
2013-09-20 23:22:00,61.0,58.0,29.98,SSW,207,5.0,-999.0,89,-99.99,,,-99.99,,2013-09-21 03:22:00,
2013-09-20 23:44:00,62.0,58.0,29.98,South,190,5.0,-999.0,88,-99.99,,,-99.99,,2013-09-21 03:44:00,
2013-09-20 23:54:00,62.0,58.0,29.98,South,188,5.0,-999.0,87,-99.99,,,-99.99,,2013-09-21 03:54:00,